Time,TemperatureF,DewpointF,PressureIn,WindDirection,WindDirectionDegrees,WindSpeedMPH,WindSpeedGustMPH,Humidity,HourlyPrecipIn,Conditions,Clouds,dailyrainin,SoftwareType,DateUTC
2013-09-05 00:03:00,68.5,63.5,29.95,SW,233,4.0,14.0,84,0.00,,---,0.00,VWS V14.01,2013-09-05 04:03:00,
2013-09-05 00:08:00,68.6,63.6,29.95,SW,235,10.0,13.0,84,0.00,,---,0.00,VWS V14.01,2013-09-05 04:08:00,
2013-09-05 00:13:00,68.5,63.8,29.95,SW,224,4.0,13.0,85,0.00,,---,0.00,VWS V14.01,2013-09-05 04:13:00,
2013-09-05 00:18:00,68.5,63.8,29.95,WSW,239,10.0,10.0,85,0.00,,---,0.00,VWS V14.01,2013-09-05 04:18:00,
2013-09-05 00:23:00,68.6,63.9,29.95,SW,231,2.0,11.0,85,0.00,,---,0.00,VWS V14.01,2013-09-05 04:23:00,
2013-09-05 00:28:00,68.6,63.9,29.95,SW,227,7.0,13.0,85,0.00,,---,0.00,VWS V14.01,2013-09-05 04:28:00,
2013-09-05 00:33:00,68.7,64.3,29.95,SW,234,4.0,13.0,86,0.00,,---,0.00,VWS V14.01,2013-09-05 04:33:00,
2013-09-05 00:38:00,68.6,64.6,29.95,SW,229,5.0,9.0,87,0.00,,---,0.00,VWS V14.01,2013-09-05 04:38:00,
2013-09-05 00:45:00,68.5,64.8,29.94,WSW,242,10.0,10.0,88,0.00,,---,0.00,VWS V14.01,2013-09-05 04:45:00,
2013-09-05 00:50:00,68.5,65.1,29.94,WSW,238,0.0,4.0,89,0.00,,---,0.00,VWS V14.01,2013-09-05 04:50:00,
2013-09-05 00:55:00,68.4,65.4,29.94,SSW,210,3.0,5.0,90,0.00,,---,0.00,VWS V14.01,2013-09-05 04:55:00,
2013-09-05 01:00:00,68.3,65.3,29.93,SW,224,1.0,3.0,90,0.00,,---,0.00,VWS V14.01,2013-09-05 05:00:00,
2013-09-05 01:05:00,68.3,65.3,29.94,SW,229,2.0,6.0,90,0.00,,---,0.00,VWS V14.01,2013-09-05 05:05:00,
2013-09-05 01:10:00,68.2,65.5,29.93,SW,223,5.0,6.0,91,0.00,,---,0.00,VWS V14.01,2013-09-05 05:10:00,
2013-09-05 01:15:00,68.1,65.4,29.93,SW,222,2.0,6.0,91,0.00,,---,0.00,VWS V14.01,2013-09-05 05:15:00,
2013-09-05 01:20:00,68.1,65.7,29.93,SW,231,7.0,7.0,92,0.00,,---,0.00,VWS V14.01,2013-09-05 05:20:00,
2013-09-05 01:25:00,68.1,65.7,29.93,WSW,246,9.0,12.0,92,0.00,,---,0.00,VWS V14.01,2013-09-05 05:25:00,
2013-09-05 01:30:00,68.0,65.6,29.93,SW,235,12.0,12.0,92,0.00,,---,0.00,VWS V14.01,2013-09-05 05:30:00,
2013-09-05 01:35:00,68.0,65.9,29.93,WSW,243,2.0,7.0,93,0.00,,---,0.00,VWS V14.01,2013-09-05 05:35:00,
2013-09-05 01:40:00,68.0,65.9,29.93,SW,235,6.0,6.0,93,0.00,,---,0.00,VWS V14.01,2013-09-05 05:40:00,
2013-09-05 01:45:00,67.9,65.8,29.93,SW,236,7.0,7.0,93,0.00,,---,0.00,VWS V14.01,2013-09-05 05:45:00,
2013-09-05 01:50:00,67.8,65.7,29.93,SW,234,4.0,4.0,93,0.00,,---,0.00,VWS V14.01,2013-09-05 05:50:00,
2013-09-05 01:55:00,67.7,65.6,29.93,SW,230,3.0,7.0,93,0.00,,---,0.00,VWS V14.01,2013-09-05 05:55:00,
2013-09-05 02:00:00,67.6,65.8,29.93,SW,224,3.0,9.0,94,0.00,,---,0.00,VWS V14.01,2013-09-05 06:00:00,
2013-09-05 02:05:00,67.5,65.7,29.93,WSW,238,3.0,6.0,94,0.00,,---,0.00,VWS V14.01,2013-09-05 06:05:00,
2013-09-05 02:10:00,67.5,65.7,29.93,WSW,237,5.0,9.0,94,0.00,,---,0.00,VWS V14.01,2013-09-05 06:10:00,
2013-09-05 02:15:00,67.5,65.7,29.93,SW,226,6.0,8.0,94,0.00,,---,0.00,VWS V14.01,2013-09-05 06:15:00,
2013-09-05 02:20:00,67.5,65.7,29.92,WSW,256,4.0,7.0,94,0.00,,---,0.00,VWS V14.01,2013-09-05 06:20:00,
2013-09-05 02:25:00,67.5,65.7,29.92,SW,229,3.0,5.0,94,0.00,,---,0.00,VWS V14.01,2013-09-05 06:25:00,
2013-09-05 02:32:00,67.4,65.6,29.92,WSW,237,9.0,13.0,94,0.00,,---,0.00,VWS V14.01,2013-09-05 06:32:00,
2013-09-05 02:37:00,67.4,65.6,29.92,WSW,240,9.0,11.0,94,0.00,,---,0.00,VWS V14.01,2013-09-05 06:37:00,
2013-09-05 02:42:00,67.4,65.3,29.92,SW,235,3.0,9.0,93,0.00,,---,0.00,VWS V14.01,2013-09-05 06:42:00,
2013-09-05 02:47:00,67.3,65.2,29.92,WSW,246,6.0,10.0,93,0.00,,---,0.00,VWS V14.01,2013-09-05 06:47:00,
2013-09-05 02:52:00,67.2,65.1,29.92,WSW,256,2.0,11.0,93,0.00,,---,0.00,VWS V14.01,2013-09-05 06:52:00,
2013-09-05 03:00:00,67.2,65.1,29.91,SW,230,1.0,4.0,93,0.00,,---,0.00,VWS V14.01,2013-09-05 07:00:00,
2013-09-05 03:05:00,67.1,65.3,29.91,SW,230,0.0,2.0,94,0.00,,---,0.00,VWS V14.01,2013-09-05 07:05:00,
2013-09-05 03:10:00,67.0,65.2,29.91,SW,230,2.0,4.0,94,0.00,,---,0.00,VWS V14.01,2013-09-05 07:10:00,
2013-09-05 03:15:00,67.0,65.2,29.91,SW,235,1.0,6.0,94,0.00,,---,0.00,VWS V14.01,2013-09-05 07:15:00,
2013-09-05 03:20:00,66.9,65.1,29.91,SW,234,1.0,1.0,94,0.00,,---,0.00,VWS V14.01,2013-09-05 07:20:00,
2013-09-05 03:25:00,66.8,65.0,29.91,SW,235,2.0,4.0,94,0.00,,---,0.00,VWS V14.01,2013-09-05 07:25:00,
2013-09-05 03:30:00,66.8,65.0,29.91,SW,234,0.0,2.0,94,0.00,,---,0.00,VWS V14.01,2013-09-05 07:30:00,
2013-09-05 03:35:00,66.7,64.9,29.91,WSW,243,2.0,4.0,94,0.00,,---,0.00,VWS V14.01,2013-09-05 07:35:00,
2013-09-05 03:40:00,66.6,64.8,29.91,WSW,254,1.0,4.0,94,0.00,,---,0.00,VWS V14.01,2013-09-05 07:40:00,
2013-09-05 03:45:00,66.5,64.4,29.91,WSW,243,1.0,4.0,93,0.00,,---,0.00,VWS V14.01,2013-09-05 07:45:00,
2013-09-05 03:50:00,66.4,64.3,29.92,West,274,0.0,5.0,93,0.00,,---,0.00,VWS V14.01,2013-09-05 07:50:00,
2013-09-05 03:55:00,66.4,64.3,29.92,WSW,241,1.0,6.0,93,0.00,,---,0.00,VWS V14.01,2013-09-05 07:55:00,
2013-09-05 04:00:00,66.4,64.3,29.92,WSW,249,3.0,4.0,93,0.00,,---,0.00,VWS V14.01,2013-09-05 08:00:00,
2013-09-05 04:05:00,66.4,64.3,29.91,WSW,249,5.0,9.0,93,0.00,,---,0.00,VWS V14.01,2013-09-05 08:05:00,
2013-09-05 04:10:00,66.4,64.3,29.92,WSW,249,6.0,7.0,93,0.00,,---,0.00,VWS V14.01,2013-09-05 08:10:00,
2013-09-05 04:15:00,66.4,64.0,29.91,WSW,241,1.0,4.0,92,0.00,,---,0.00,VWS V14.01,2013-09-05 08:15:00,
2013-09-05 04:20:00,66.4,64.0,29.91,WSW,240,1.0,3.0,92,0.00,,---,0.00,VWS V14.01,2013-09-05 08:20:00,
2013-09-05 04:25:00,66.5,64.1,29.91,West,261,4.0,4.0,92,0.00,,---,0.00,VWS V14.01,2013-09-05 08:25:00,
2013-09-05 04:33:00,66.5,63.8,29.91,WSW,256,3.0,5.0,91,0.00,,---,0.00,VWS V14.01,2013-09-05 08:33:00,
2013-09-05 04:38:00,66.5,63.8,29.91,WSW,258,3.0,5.0,91,0.00,,---,0.00,VWS V14.01,2013-09-05 08:38:00,
2013-09-05 04:43:00,66.5,63.8,29.91,WSW,249,3.0,7.0,91,0.00,,---,0.00,VWS V14.01,2013-09-05 08:43:00,
2013-09-05 04:48:00,66.4,63.7,29.91,WSW,245,2.0,5.0,91,0.00,,---,0.00,VWS V14.01,2013-09-05 08:48:00,
2013-09-05 04:53:00,66.4,63.7,29.91,WSW,244,3.0,9.0,91,0.00,,---,0.00,VWS V14.01,2013-09-05 08:53:00,
2013-09-05 04:58:00,66.4,63.7,29.91,WSW,240,0.0,9.0,91,0.00,,---,0.00,VWS V14.01,2013-09-05 08:58:00,
2013-09-05 05:03:00,66.3,63.6,29.91,WSW,242,3.0,6.0,91,0.00,,---,0.00,VWS V14.01,2013-09-05 09:03:00,
2013-09-05 05:09:00,66.2,63.8,29.91,WSW,242,0.0,5.0,92,0.00,,---,0.00,VWS V14.01,2013-09-05 09:09:00,
2013-09-05 05:14:00,66.2,63.8,29.91,WSW,242,1.0,6.0,92,0.00,,---,0.00,VWS V14.01,2013-09-05 09:14:00,
2013-09-05 05:19:00,66.2,63.8,29.91,WSW,241,4.0,10.0,92,0.00,,---,0.00,VWS V14.01,2013-09-05 09:19:00,
2013-09-05 05:24:00,66.2,63.8,29.91,WSW,241,4.0,11.0,92,0.00,,---,0.00,VWS V14.01,2013-09-05 09:24:00,
2013-09-05 05:29:00,66.4,64.3,29.91,SW,236,1.0,10.0,93,0.00,,---,0.00,VWS V14.01,2013-09-05 09:29:00,
2013-09-05 05:34:00,66.7,64.6,29.91,WSW,237,1.0,9.0,93,0.00,,---,0.00,VWS V14.01,2013-09-05 09:34:00,
2013-09-05 05:39:00,67.0,64.9,29.90,SW,232,2.0,10.0,93,0.00,,---,0.00,VWS V14.01,2013-09-05 09:39:00,
2013-09-05 05:44:00,67.2,65.1,29.91,SW,235,3.0,14.0,93,0.00,,---,0.00,VWS V14.01,2013-09-05 09:44:00,
2013-09-05 05:49:00,67.4,65.3,29.91,SW,226,12.0,17.0,93,0.00,,---,0.00,VWS V14.01,2013-09-05 09:49:00,
2013-09-05 05:54:00,67.4,65.3,29.91,WSW,237,9.0,13.0,93,0.00,,---,0.00,VWS V14.01,2013-09-05 09:54:00,
2013-09-05 05:59:00,67.4,65.3,29.91,WSW,241,10.0,15.0,93,0.00,,---,0.00,VWS V14.01,2013-09-05 09:59:00,
2013-09-05 06:04:00,67.4,65.3,29.92,SW,230,6.0,14.0,93,0.00,,---,0.00,VWS V14.01,2013-09-05 10:04:00,
2013-09-05 06:09:00,67.3,65.2,29.92,SW,234,1.0,13.0,93,0.00,,---,0.00,VWS V14.01,2013-09-05 10:09:00,
2013-09-05 06:14:00,67.1,65.0,29.92,SW,228,4.0,12.0,93,0.00,,---,0.00,VWS V14.01,2013-09-05 10:14:00,
2013-09-05 06:19:00,67.0,64.9,29.92,WSW,237,12.0,14.0,93,0.00,,---,0.00,VWS V14.01,2013-09-05 10:19:00,
2013-09-05 06:24:00,66.9,64.8,29.92,SW,232,1.0,16.0,93,0.00,,---,0.00,VWS V14.01,2013-09-05 10:24:00,
2013-09-05 06:29:00,66.8,64.7,29.92,SW,233,6.0,15.0,93,0.00,,---,0.00,VWS V14.01,2013-09-05 10:29:00,
2013-09-05 06:34:00,66.7,64.9,29.91,SW,232,7.0,14.0,94,0.00,,---,0.00,VWS V14.01,2013-09-05 10:34:00,
2013-09-05 06:39:00,66.7,64.9,29.91,SW,231,4.0,12.0,94,0.00,,---,0.00,VWS V14.01,2013-09-05 10:39:00,
2013-09-05 06:44:00,66.7,64.9,29.92,WSW,245,7.0,11.0,94,0.00,,---,0.00,VWS V14.01,2013-09-05 10:44:00,
2013-09-05 06:49:00,66.7,64.9,29.92,WSW,244,2.0,9.0,94,0.00,,---,0.00,VWS V14.01,2013-09-05 10:49:00,
2013-09-05 06:55:00,66.8,65.0,29.92,WSW,255,4.0,9.0,94,0.00,,---,0.00,VWS V14.01,2013-09-05 10:55:00,
2013-09-05 07:00:00,66.9,65.1,29.92,West,260,1.0,3.0,94,0.00,,---,0.00,VWS V14.01,2013-09-05 11:00:00,
2013-09-05 07:05:00,67.0,64.9,29.91,WSW,251,1.0,10.0,93,0.00,,---,0.00,VWS V14.01,2013-09-05 11:05:00,
2013-09-05 07:10:00,67.1,65.0,29.91,SW,231,4.0,10.0,93,0.00,,---,0.00,VWS V14.01,2013-09-05 11:10:00,
2013-09-05 07:15:00,67.2,65.1,29.91,WSW,240,1.0,7.0,93,0.00,,---,0.00,VWS V14.01,2013-09-05 11:15:00,
2013-09-05 07:20:00,67.4,65.3,29.92,WSW,241,6.0,6.0,93,0.00,,---,0.00,VWS V14.01,2013-09-05 11:20:00,
2013-09-05 07:25:00,67.7,65.3,29.92,WSW,237,4.0,5.0,92,0.00,,---,0.00,VWS V14.01,2013-09-05 11:25:00,
2013-09-05 07:31:00,67.9,65.5,29.92,SW,235,6.0,7.0,92,0.00,,---,0.00,VWS V14.01,2013-09-05 11:31:00,
2013-09-05 07:36:00,68.0,65.3,29.92,SW,235,4.0,5.0,91,0.00,,---,0.00,VWS V14.01,2013-09-05 11:36:00,
2013-09-05 07:41:00,68.2,65.5,29.92,SW,235,6.0,9.0,91,0.00,,---,0.00,VWS V14.01,2013-09-05 11:41:00,
2013-09-05 07:46:00,68.3,65.3,29.92,SW,233,6.0,9.0,90,0.00,,---,0.00,VWS V14.01,2013-09-05 11:46:00,
2013-09-05 07:51:00,68.4,65.4,29.92,SW,235,1.0,9.0,90,0.00,,---,0.00,VWS V14.01,2013-09-05 11:51:00,
2013-09-05 07:56:00,68.6,65.6,29.91,SW,226,3.0,10.0,90,0.00,,---,0.00,VWS V14.01,2013-09-05 11:56:00,
2013-09-05 08:01:00,68.8,65.4,29.92,SW,224,4.0,10.0,89,0.00,,---,0.00,VWS V14.01,2013-09-05 12:01:00,
2013-09-05 08:06:00,69.0,65.6,29.92,SW,231,3.0,10.0,89,0.00,,---,0.00,VWS V14.01,2013-09-05 12:06:00,
2013-09-05 08:11:00,69.3,65.6,29.92,WSW,239,6.0,10.0,88,0.00,,---,0.00,VWS V14.01,2013-09-05 12:11:00,
2013-09-05 08:16:00,69.6,65.6,29.92,WSW,248,4.0,14.0,87,0.00,,---,0.00,VWS V14.01,2013-09-05 12:16:00,
2013-09-05 08:21:00,69.7,65.7,29.92,WSW,251,3.0,10.0,87,0.00,,---,0.00,VWS V14.01,2013-09-05 12:21:00,
2013-09-05 08:26:00,69.9,65.5,29.92,WSW,251,3.0,10.0,86,0.00,,---,0.00,VWS V14.01,2013-09-05 12:26:00,
2013-09-05 08:31:00,70.3,65.6,29.92,WSW,243,0.0,7.0,85,0.00,,---,0.00,VWS V14.01,2013-09-05 12:31:00,
2013-09-05 08:36:00,70.8,65.4,29.92,West,277,3.0,5.0,83,0.00,,---,0.00,VWS V14.01,2013-09-05 12:36:00,
2013-09-05 08:41:00,71.3,65.2,29.92,West,259,2.0,6.0,81,0.00,,---,0.00,VWS V14.01,2013-09-05 12:41:00,
2013-09-05 08:46:00,71.6,65.1,29.92,WSW,255,2.0,6.0,80,0.00,,---,0.00,VWS V14.01,2013-09-05 12:46:00,
2013-09-05 08:51:00,71.8,65.7,29.93,WSW,258,1.0,2.0,81,0.00,,---,0.00,VWS V14.01,2013-09-05 12:51:00,
2013-09-05 08:56:00,71.9,65.0,29.93,WNW,295,0.0,5.0,79,0.00,,---,0.00,VWS V14.01,2013-09-05 12:56:00,
2013-09-05 09:01:00,72.1,64.9,29.93,WNW,297,1.0,3.0,78,0.00,,---,0.00,VWS V14.01,2013-09-05 13:01:00,
2013-09-05 09:06:00,72.2,65.0,29.93,WNW,295,3.0,5.0,78,0.00,,---,0.00,VWS V14.01,2013-09-05 13:06:00,
2013-09-05 09:11:00,72.1,64.5,29.93,WNW,291,0.0,4.0,77,0.00,,---,0.00,VWS V14.01,2013-09-05 13:11:00,
2013-09-05 09:16:00,72.0,64.8,29.93,WSW,249,1.0,1.0,78,0.00,,---,0.00,VWS V14.01,2013-09-05 13:16:00,
2013-09-05 09:21:00,71.7,64.1,29.94,West,266,2.0,6.0,77,0.00,,---,0.00,VWS V14.01,2013-09-05 13:21:00,
2013-09-05 09:26:00,71.4,64.6,29.94,West,273,1.0,2.0,79,0.00,,---,0.00,VWS V14.01,2013-09-05 13:26:00,
2013-09-05 09:31:00,71.2,64.0,29.95,WNW,287,0.0,4.0,78,0.00,,---,0.00,VWS V14.01,2013-09-05 13:31:00,
2013-09-05 09:36:00,70.8,64.0,29.95,WNW,297,5.0,6.0,79,0.00,,---,0.00,VWS V14.01,2013-09-05 13:36:00,
2013-09-05 09:41:00,70.5,63.0,29.95,NW,307,7.0,7.0,77,0.00,,---,0.00,VWS V14.01,2013-09-05 13:41:00,
2013-09-05 09:46:00,70.2,62.7,29.95,NW,315,4.0,6.0,77,0.00,,---,0.00,VWS V14.01,2013-09-05 13:46:00,
2013-09-05 09:51:00,69.8,62.3,29.95,NW,322,2.0,5.0,77,0.00,,---,0.00,VWS V14.01,2013-09-05 13:51:00,
2013-09-05 09:56:00,69.5,62.0,29.96,NW,326,5.0,6.0,77,0.00,,---,0.00,VWS V14.01,2013-09-05 13:56:00,
2013-09-05 10:01:00,69.2,62.4,29.96,NW,312,1.0,4.0,79,0.00,,---,0.00,VWS V14.01,2013-09-05 14:01:00,
2013-09-05 10:06:00,68.9,62.5,29.96,NW,322,2.0,5.0,80,0.00,,---,0.00,VWS V14.01,2013-09-05 14:06:00,
2013-09-05 10:11:00,68.5,62.1,29.96,NW,314,7.0,9.0,80,0.00,,---,0.00,VWS V14.01,2013-09-05 14:11:00,
2013-09-05 10:16:00,68.0,62.3,29.96,NNW,330,8.0,10.0,82,0.00,,---,0.00,VWS V14.01,2013-09-05 14:16:00,
2013-09-05 10:21:00,67.4,62.1,29.96,NNW,328,4.0,11.0,83,0.00,,---,0.00,VWS V14.01,2013-09-05 14:21:00,
2013-09-05 10:26:00,67.0,61.7,29.96,NNW,338,5.0,14.0,83,0.00,,---,0.00,VWS V14.01,2013-09-05 14:26:00,
2013-09-05 10:31:00,66.8,61.5,29.96,North,358,13.0,13.0,83,0.00,,---,0.00,VWS V14.01,2013-09-05 14:31:00,
2013-09-05 10:36:00,66.6,60.9,29.96,NNW,347,2.0,11.0,82,0.00,,---,0.00,VWS V14.01,2013-09-05 14:36:00,
2013-09-05 10:43:00,66.3,61.0,29.96,NW,320,6.0,13.0,83,0.00,,---,0.00,VWS V14.01,2013-09-05 14:43:00,
2013-09-05 10:48:00,66.0,61.0,29.96,NNW,338,11.0,11.0,84,0.00,,---,0.00,VWS V14.01,2013-09-05 14:48:00,
2013-09-05 10:53:00,65.8,60.8,29.96,NW,308,4.0,12.0,84,0.00,,---,0.00,VWS V14.01,2013-09-05 14:53:00,
2013-09-05 10:58:00,65.7,60.7,29.95,NW,314,6.0,10.0,84,0.00,,---,0.00,VWS V14.01,2013-09-05 14:58:00,
2013-09-05 11:03:00,65.5,60.5,29.95,NW,304,2.0,7.0,84,0.00,,---,0.00,VWS V14.01,2013-09-05 15:03:00,
2013-09-05 11:08:00,65.6,61.0,29.95,NW,307,2.0,4.0,85,0.00,,---,0.00,VWS V14.01,2013-09-05 15:08:00,
2013-09-05 11:13:00,65.9,60.9,29.96,NW,323,4.0,7.0,84,0.00,,---,0.00,VWS V14.01,2013-09-05 15:13:00,
2013-09-05 11:18:00,66.3,61.3,29.96,NW,326,1.0,5.0,84,0.00,,---,0.00,VWS V14.01,2013-09-05 15:18:00,
2013-09-05 11:23:00,66.7,61.4,29.96,NW,317,2.0,10.0,83,0.00,,---,0.00,VWS V14.01,2013-09-05 15:23:00,
2013-09-05 11:28:00,67.0,61.7,29.96,NW,315,3.0,4.0,83,0.00,,---,0.00,VWS V14.01,2013-09-05 15:28:00,
2013-09-05 11:33:00,66.9,61.6,29.96,NW,316,4.0,6.0,83,0.00,,---,0.00,VWS V14.01,2013-09-05 15:33:00,
2013-09-05 11:38:00,66.9,61.6,29.96,NW,317,3.0,7.0,83,0.00,,---,0.00,VWS V14.01,2013-09-05 15:38:00,
2013-09-05 11:43:00,67.1,62.1,29.96,NW,318,2.0,5.0,84,0.00,,---,0.00,VWS V14.01,2013-09-05 15:43:00,
2013-09-05 11:48:00,67.3,62.6,29.96,NW,318,0.0,4.0,85,0.00,,---,0.00,VWS V14.01,2013-09-05 15:48:00,
2013-09-05 11:53:00,67.4,62.7,29.96,NNW,347,0.0,4.0,85,0.00,,---,0.00,VWS V14.01,2013-09-05 15:53:00,
2013-09-05 11:58:00,67.5,62.8,29.96,North,353,4.0,5.0,85,0.00,,---,0.00,VWS V14.01,2013-09-05 15:58:00,
2013-09-05 12:03:00,67.8,63.1,29.96,NNW,341,2.0,6.0,85,0.00,,---,0.00,VWS V14.01,2013-09-05 16:03:00,
2013-09-05 12:08:00,68.3,63.3,29.96,NNW,337,2.0,7.0,84,0.00,,---,0.00,VWS V14.01,2013-09-05 16:08:00,
2013-09-05 12:13:00,68.9,63.5,29.96,NW,305,4.0,9.0,83,0.00,,---,0.00,VWS V14.01,2013-09-05 16:13:00,
2013-09-05 12:18:00,69.3,63.6,29.96,NNE,19,3.0,5.0,82,0.00,,---,0.00,VWS V14.01,2013-09-05 16:18:00,
2013-09-05 12:23:00,69.4,64.0,29.96,NW,316,7.0,10.0,83,0.00,,---,0.00,VWS V14.01,2013-09-05 16:23:00,
2013-09-05 12:28:00,69.4,63.7,29.96,NW,325,1.0,8.0,82,0.00,,---,0.00,VWS V14.01,2013-09-05 16:28:00,
2013-09-05 12:33:00,69.4,63.7,29.96,NNW,328,7.0,7.0,82,0.00,,---,0.00,VWS V14.01,2013-09-05 16:33:00,
2013-09-05 12:38:00,69.2,63.8,29.96,NNE,13,6.0,9.0,83,0.00,,---,0.00,VWS V14.01,2013-09-05 16:38:00,
2013-09-05 12:44:00,68.9,63.2,29.97,North,352,6.0,9.0,82,0.00,,---,0.00,VWS V14.01,2013-09-05 16:44:00,
2013-09-05 12:49:00,68.7,62.6,29.97,North,353,3.0,7.0,81,0.00,,---,0.00,VWS V14.01,2013-09-05 16:49:00,
2013-09-05 12:54:00,68.6,62.9,29.97,ENE,65,4.0,10.0,82,0.00,,---,0.00,VWS V14.01,2013-09-05 16:54:00,
2013-09-05 12:59:00,68.8,63.1,29.97,NNE,29,2.0,9.0,82,0.00,,---,0.00,VWS V14.01,2013-09-05 16:59:00,
2013-09-05 13:04:00,69.1,63.4,29.97,NNW,341,2.0,9.0,82,0.00,,---,0.00,VWS V14.01,2013-09-05 17:04:00,
2013-09-05 13:09:00,69.1,62.7,29.97,NNE,19,3.0,8.0,80,0.00,,---,0.00,VWS V14.01,2013-09-05 17:09:00,
2013-09-05 13:14:00,69.2,63.5,29.97,ENE,66,4.0,15.0,82,0.00,,---,0.00,VWS V14.01,2013-09-05 17:14:00,
2013-09-05 13:19:00,68.5,63.1,29.97,NE,52,4.0,13.0,83,0.00,,---,0.00,VWS V14.01,2013-09-05 17:19:00,
2013-09-05 13:24:00,68.2,62.8,29.97,NE,50,6.0,10.0,83,0.00,,---,0.00,VWS V14.01,2013-09-05 17:24:00,
2013-09-05 13:29:00,67.9,62.5,29.97,ENE,76,8.0,11.0,83,0.00,,---,0.00,VWS V14.01,2013-09-05 17:29:00,
2013-09-05 13:34:00,67.6,62.6,29.97,NNE,12,4.0,10.0,84,0.00,,---,0.00,VWS V14.01,2013-09-05 17:34:00,
2013-09-05 13:39:00,67.4,62.1,29.98,ENE,58,0.0,10.0,83,0.00,,---,0.00,VWS V14.01,2013-09-05 17:39:00,
2013-09-05 13:44:00,67.3,62.0,29.98,North,357,7.0,12.0,83,0.00,,---,0.00,VWS V14.01,2013-09-05 17:44:00,
2013-09-05 13:49:00,67.2,61.9,29.98,NE,43,5.0,11.0,83,0.00,,---,0.00,VWS V14.01,2013-09-05 17:49:00,
2013-09-05 13:55:00,67.6,61.9,29.98,NNW,344,7.0,7.0,82,0.00,,---,0.00,VWS V14.01,2013-09-05 17:55:00,
2013-09-05 14:00:00,67.9,61.9,29.98,NE,46,3.0,9.0,81,0.00,,---,0.00,VWS V14.01,2013-09-05 18:00:00,
2013-09-05 14:05:00,68.5,62.5,29.98,ENE,75,3.0,3.0,81,0.00,,---,0.00,VWS V14.01,2013-09-05 18:05:00,
2013-09-05 14:10:00,69.2,63.1,29.98,North,6,9.0,10.0,81,0.00,,---,0.00,VWS V14.01,2013-09-05 18:10:00,
2013-09-05 14:15:00,68.7,63.3,29.98,East,89,9.0,9.0,83,0.00,,---,0.00,VWS V14.01,2013-09-05 18:15:00,
2013-09-05 14:20:00,68.7,63.7,29.98,NE,50,9.0,16.0,84,0.00,,---,0.00,VWS V14.01,2013-09-05 18:20:00,
2013-09-05 14:25:00,68.8,63.1,29.98,NNW,339,2.0,9.0,82,0.00,,---,0.00,VWS V14.01,2013-09-05 18:25:00,
2013-09-05 14:30:00,68.3,62.9,29.99,NE,49,5.0,8.0,83,0.00,,---,0.00,VWS V14.01,2013-09-05 18:30:00,
2013-09-05 14:35:00,67.6,62.6,29.99,ENE,75,4.0,7.0,84,0.00,,---,0.00,VWS V14.01,2013-09-05 18:35:00,
2013-09-05 14:40:00,67.1,62.1,29.99,ENE,69,6.0,12.0,84,0.00,,---,0.00,VWS V14.01,2013-09-05 18:40:00,
2013-09-05 14:45:00,66.8,61.5,29.99,North,357,10.0,10.0,83,0.00,,---,0.00,VWS V14.01,2013-09-05 18:45:00,
2013-09-05 14:50:00,66.8,61.5,29.99,North,360,4.0,12.0,83,0.00,,---,0.00,VWS V14.01,2013-09-05 18:50:00,
2013-09-05 14:55:00,66.6,61.3,29.99,ENE,77,9.0,9.0,83,0.00,,---,0.00,VWS V14.01,2013-09-05 18:55:00,
2013-09-05 15:00:00,66.6,62.0,29.99,North,10,5.0,9.0,85,0.00,,---,0.00,VWS V14.01,2013-09-05 19:00:00,
2013-09-05 15:06:00,66.7,61.7,29.99,NE,48,9.0,13.0,84,0.00,,---,0.00,VWS V14.01,2013-09-05 19:06:00,
2013-09-05 15:11:00,66.7,61.0,29.99,NNE,24,2.0,13.0,82,0.00,,---,0.00,VWS V14.01,2013-09-05 19:11:00,
2013-09-05 15:16:00,66.9,60.9,29.99,NE,40,10.0,11.0,81,0.00,,---,0.00,VWS V14.01,2013-09-05 19:16:00,
2013-09-05 15:21:00,67.3,61.3,29.99,NE,48,5.0,12.0,81,0.00,,---,0.00,VWS V14.01,2013-09-05 19:21:00,
2013-09-05 15:26:00,67.0,61.0,29.99,ESE,104,5.0,14.0,81,0.00,,---,0.00,VWS V14.01,2013-09-05 19:26:00,
2013-09-05 15:31:00,66.4,60.4,29.99,NE,48,5.0,13.0,81,0.00,,---,0.00,VWS V14.01,2013-09-05 19:31:00,
2013-09-05 15:36:00,66.2,60.5,29.99,East,92,1.0,12.0,82,0.00,,---,0.00,VWS V14.01,2013-09-05 19:36:00,
2013-09-05 15:42:00,66.1,60.5,29.99,NE,52,4.0,10.0,82,0.00,,---,0.00,VWS V14.01,2013-09-05 19:42:00,
2013-09-05 15:47:00,65.9,60.3,29.99,ENE,64,6.0,12.0,82,0.00,,---,0.00,VWS V14.01,2013-09-05 19:47:00,
2013-09-05 15:52:00,65.6,60.0,29.99,East,89,4.0,14.0,82,0.00,,---,0.00,VWS V14.01,2013-09-05 19:52:00,
2013-09-05 15:57:00,65.2,59.9,30.00,ENE,67,7.0,13.0,83,0.00,,---,0.00,VWS V14.01,2013-09-05 19:57:00,
2013-09-05 16:02:00,64.9,59.6,30.00,ENE,65,3.0,11.0,83,0.00,,---,0.00,VWS V14.01,2013-09-05 20:02:00,
2013-09-05 16:07:00,64.7,59.8,30.00,ENE,59,3.0,11.0,84,0.00,,---,0.00,VWS V14.01,2013-09-05 20:07:00,
2013-09-05 16:12:00,64.6,60.0,30.00,NNE,33,9.0,12.0,85,0.00,,---,0.00,VWS V14.01,2013-09-05 20:12:00,
2013-09-05 16:17:00,64.5,59.9,30.00,NE,38,3.0,12.0,85,0.00,,---,0.00,VWS V14.01,2013-09-05 20:17:00,
2013-09-05 16:22:00,64.4,59.5,30.00,NE,43,11.0,12.0,84,0.00,,---,0.00,VWS V14.01,2013-09-05 20:22:00,
2013-09-05 16:27:00,64.3,59.4,30.00,ENE,61,8.0,15.0,84,0.00,,---,0.00,VWS V14.01,2013-09-05 20:27:00,
2013-09-05 16:32:00,64.2,59.3,30.01,ENE,75,3.0,13.0,84,0.00,,---,0.00,VWS V14.01,2013-09-05 20:32:00,
2013-09-05 16:43:00,64.2,59.6,30.01,NE,38,3.0,11.0,85,0.00,,---,0.00,VWS V14.01,2013-09-05 20:43:00,
2013-09-05 16:48:00,64.2,59.3,30.01,NE,56,8.0,12.0,84,0.00,,---,0.00,VWS V14.01,2013-09-05 20:48:00,
2013-09-05 16:53:00,64.2,59.3,30.01,ENE,75,5.0,11.0,84,0.00,,---,0.00,VWS V14.01,2013-09-05 20:53:00,
2013-09-05 16:58:00,64.3,59.4,30.01,ENE,64,5.0,11.0,84,0.00,,---,0.00,VWS V14.01,2013-09-05 20:58:00,
2013-09-05 17:03:00,64.3,59.4,30.02,East,84,2.0,10.0,84,0.00,,---,0.00,VWS V14.01,2013-09-05 21:03:00,
2013-09-05 17:08:00,64.1,59.2,30.02,NNE,24,3.0,9.0,84,0.00,,---,0.00,VWS V14.01,2013-09-05 21:08:00,
2013-09-05 17:13:00,64.0,59.1,30.02,North,1,4.0,6.0,84,0.00,,---,0.00,VWS V14.01,2013-09-05 21:13:00,
2013-09-05 17:18:00,63.9,59.0,30.03,NE,52,6.0,12.0,84,0.00,,---,0.00,VWS V14.01,2013-09-05 21:18:00,
2013-09-05 17:23:00,63.8,58.5,30.03,NE,52,3.0,10.0,83,0.00,,---,0.00,VWS V14.01,2013-09-05 21:23:00,
2013-09-05 17:28:00,63.7,58.5,30.02,East,100,0.0,11.0,83,0.00,,---,0.00,VWS V14.01,2013-09-05 21:28:00,
2013-09-05 17:33:00,63.6,58.3,30.02,ENE,74,4.0,7.0,83,0.00,,---,0.00,VWS V14.01,2013-09-05 21:33:00,
2013-09-05 17:38:00,63.5,58.2,30.03,NE,50,4.0,11.0,83,0.00,,---,0.00,VWS V14.01,2013-09-05 21:38:00,
2013-09-05 17:43:00,63.4,57.8,30.03,NE,52,3.0,9.0,82,0.00,,---,0.00,VWS V14.01,2013-09-05 21:43:00,
2013-09-05 17:48:00,63.3,57.0,30.03,ENE,60,7.0,12.0,80,0.00,,---,0.00,VWS V14.01,2013-09-05 21:48:00,
2013-09-05 17:53:00,63.2,56.6,30.04,NE,54,5.0,11.0,79,0.00,,---,0.00,VWS V14.01,2013-09-05 21:53:00,
2013-09-05 17:58:00,63.1,55.4,30.04,NNE,19,8.0,11.0,76,0.00,,---,0.00,VWS V14.01,2013-09-05 21:58:00,
2013-09-05 18:03:00,63.2,55.9,30.04,North,8,2.0,9.0,77,0.00,,---,0.00,VWS V14.01,2013-09-05 22:03:00,
2013-09-05 18:08:00,63.2,56.2,30.05,NNE,24,5.0,12.0,78,0.00,,---,0.00,VWS V14.01,2013-09-05 22:08:00,
2013-09-05 18:13:00,63.2,56.2,30.05,NE,56,6.0,10.0,78,0.00,,---,0.00,VWS V14.01,2013-09-05 22:13:00,
2013-09-05 18:18:00,63.2,56.2,30.05,North,8,5.0,11.0,78,0.00,,---,0.00,VWS V14.01,2013-09-05 22:18:00,
2013-09-05 18:23:00,63.3,56.3,30.05,NNE,33,2.0,6.0,78,0.00,,---,0.00,VWS V14.01,2013-09-05 22:23:00,
2013-09-05 18:28:00,63.3,56.3,30.05,NE,56,3.0,8.0,78,0.00,,---,0.00,VWS V14.01,2013-09-05 22:28:00,
2013-09-05 18:33:00,63.2,56.2,30.05,NE,41,6.0,9.0,78,0.00,,---,0.00,VWS V14.01,2013-09-05 22:33:00,
2013-09-05 18:38:00,63.0,56.0,30.05,ENE,58,3.0,11.0,78,0.00,,---,0.00,VWS V14.01,2013-09-05 22:38:00,
2013-09-05 18:43:00,62.9,56.6,30.05,ENE,69,3.0,9.0,80,0.00,,---,0.00,VWS V14.01,2013-09-05 22:43:00,
2013-09-05 18:48:00,62.7,56.5,30.04,ENE,61,6.0,9.0,80,0.00,,---,0.00,VWS V14.01,2013-09-05 22:48:00,
2013-09-05 18:53:00,62.6,56.3,30.05,ENE,60,2.0,9.0,80,0.00,,---,0.00,VWS V14.01,2013-09-05 22:53:00,
2013-09-05 18:58:00,62.5,56.2,30.05,ENE,61,8.0,9.0,80,0.00,,---,0.00,VWS V14.01,2013-09-05 22:58:00,
2013-09-05 19:03:00,62.5,56.6,30.04,ENE,65,5.0,10.0,81,0.00,,---,0.00,VWS V14.01,2013-09-05 23:03:00,
2013-09-05 19:08:00,62.4,56.5,30.05,ENE,70,3.0,9.0,81,0.00,,---,0.00,VWS V14.01,2013-09-05 23:08:00,
2013-09-05 19:13:00,62.3,56.4,30.05,NE,52,4.0,7.0,81,0.00,,---,0.00,VWS V14.01,2013-09-05 23:13:00,
2013-09-05 19:18:00,62.2,56.3,30.05,East,85,2.0,7.0,81,0.00,,---,0.00,VWS V14.01,2013-09-05 23:18:00,
2013-09-05 19:24:00,62.2,56.3,30.05,NE,56,3.0,6.0,81,0.00,,---,0.00,VWS V14.01,2013-09-05 23:24:00,
2013-09-05 19:29:00,62.1,55.9,30.06,ENE,68,3.0,7.0,80,0.00,,---,0.00,VWS V14.01,2013-09-05 23:29:00,
2013-09-05 19:34:00,62.0,56.1,30.06,ENE,60,4.0,9.0,81,0.00,,---,0.00,VWS V14.01,2013-09-05 23:34:00,
2013-09-05 19:39:00,62.0,55.8,30.06,ENE,59,2.0,6.0,80,0.00,,---,0.00,VWS V14.01,2013-09-05 23:39:00,
2013-09-05 19:44:00,62.0,55.8,30.07,East,81,2.0,6.0,80,0.00,,---,0.00,VWS V14.01,2013-09-05 23:44:00,
2013-09-05 19:49:00,62.0,55.8,30.07,ENE,77,4.0,7.0,80,0.00,,---,0.00,VWS V14.01,2013-09-05 23:49:00,
2013-09-05 19:54:00,62.0,55.8,30.07,East,80,0.0,5.0,80,0.00,,---,0.00,VWS V14.01,2013-09-05 23:54:00,
2013-09-05 19:59:00,62.0,55.8,30.07,ENE,62,4.0,6.0,80,0.00,,---,0.00,VWS V14.01,2013-09-05 23:59:00,
2013-09-05 20:04:00,61.9,55.7,30.07,ENE,69,0.0,6.0,80,0.00,,---,0.00,VWS V14.01,2013-09-06 00:04:00,
2013-09-05 20:09:00,61.9,56.0,30.08,ENE,69,4.0,4.0,81,0.00,,---,0.00,VWS V14.01,2013-09-06 00:09:00,
2013-09-05 20:14:00,61.8,55.9,30.08,East,91,1.0,6.0,81,0.00,,---,0.00,VWS V14.01,2013-09-06 00:14:00,
2013-09-05 20:19:00,61.9,57.3,30.08,East,81,2.0,4.0,85,0.00,,---,0.00,VWS V14.01,2013-09-06 00:19:00,
2013-09-05 20:24:00,61.8,57.2,30.08,East,81,0.0,3.0,85,0.00,,---,0.00,VWS V14.01,2013-09-06 00:24:00,
2013-09-05 20:29:00,61.6,57.4,30.08,East,81,0.0,2.0,86,0.00,,---,0.00,VWS V14.01,2013-09-06 00:29:00,
2013-09-05 20:34:00,61.4,57.2,30.09,East,81,0.0,4.0,86,0.00,,---,0.00,VWS V14.01,2013-09-06 00:34:00,
2013-09-05 20:39:00,61.4,57.5,30.09,East,81,2.0,4.0,87,0.00,,---,0.00,VWS V14.01,2013-09-06 00:39:00,
2013-09-05 20:44:00,61.3,57.4,30.09,East,81,1.0,3.0,87,0.00,,---,0.00,VWS V14.01,2013-09-06 00:44:00,
2013-09-05 20:49:00,61.3,57.4,30.09,East,81,1.0,4.0,87,0.00,,---,0.00,VWS V14.01,2013-09-06 00:49:00,
2013-09-05 20:54:00,61.1,57.5,30.09,East,81,0.0,4.0,88,0.00,,---,0.00,VWS V14.01,2013-09-06 00:54:00,
2013-09-05 20:59:00,61.0,57.4,30.10,East,81,2.0,4.0,88,0.00,,---,0.00,VWS V14.01,2013-09-06 00:59:00,
2013-09-05 21:04:00,60.8,57.2,30.10,East,81,1.0,3.0,88,0.00,,---,0.00,VWS V14.01,2013-09-06 01:04:00,
2013-09-05 21:09:00,60.7,57.1,30.10,East,81,3.0,4.0,88,0.00,,---,0.00,VWS V14.01,2013-09-06 01:09:00,
2013-09-05 21:14:00,60.6,57.0,30.10,East,81,1.0,4.0,88,0.00,,---,0.00,VWS V14.01,2013-09-06 01:14:00,
2013-09-05 21:20:00,60.6,57.0,30.11,East,81,2.0,4.0,88,0.00,,---,0.00,VWS V14.01,2013-09-06 01:20:00,
2013-09-05 21:25:00,60.5,56.6,30.11,East,81,0.0,4.0,87,0.00,,---,0.00,VWS V14.01,2013-09-06 01:25:00,
2013-09-05 21:30:00,60.4,56.5,30.11,East,81,0.0,4.0,87,0.00,,---,0.00,VWS V14.01,2013-09-06 01:30:00,
2013-09-05 21:35:00,60.4,56.5,30.11,East,81,2.0,4.0,87,0.00,,---,0.00,VWS V14.01,2013-09-06 01:35:00,
2013-09-05 21:40:00,60.3,56.4,30.11,East,81,1.0,4.0,87,0.00,,---,0.00,VWS V14.01,2013-09-06 01:40:00,
2013-09-05 21:45:00,60.2,56.3,30.11,NNE,19,0.0,4.0,87,0.00,,---,0.00,VWS V14.01,2013-09-06 01:45:00,
2013-09-05 21:50:00,60.0,56.1,30.11,NNE,19,2.0,4.0,87,0.00,,---,0.00,VWS V14.01,2013-09-06 01:50:00,
2013-09-05 21:55:00,59.9,56.0,30.12,NNE,19,0.0,4.0,87,0.00,,---,0.00,VWS V14.01,2013-09-06 01:55:00,
2013-09-05 22:00:00,59.8,55.9,30.12,NNE,19,1.0,4.0,87,0.00,,---,0.00,VWS V14.01,2013-09-06 02:00:00,
2013-09-05 22:06:00,59.7,55.8,30.12,NNE,19,2.0,5.0,87,0.00,,---,0.00,VWS V14.01,2013-09-06 02:06:00,
2013-09-05 22:11:00,59.7,55.8,30.12,NNE,19,2.0,3.0,87,0.00,,---,0.00,VWS V14.01,2013-09-06 02:11:00,
2013-09-05 22:16:00,59.6,55.7,30.13,NNE,19,1.0,3.0,87,0.00,,---,0.00,VWS V14.01,2013-09-06 02:16:00,
2013-09-05 22:21:00,59.5,55.6,30.13,NNE,19,3.0,4.0,87,0.00,,---,0.00,VWS V14.01,2013-09-06 02:21:00,
2013-09-05 22:26:00,59.4,55.5,30.13,NNE,19,1.0,2.0,87,0.00,,---,0.00,VWS V14.01,2013-09-06 02:26:00,
2013-09-05 22:31:00,59.3,55.4,30.14,NNE,19,0.0,3.0,87,0.00,,---,0.00,VWS V14.01,2013-09-06 02:31:00,
2013-09-05 22:36:00,59.2,55.3,30.13,NNE,19,1.0,4.0,87,0.00,,---,0.00,VWS V14.01,2013-09-06 02:36:00,
2013-09-05 22:41:00,59.1,55.2,30.14,NNE,19,1.0,1.0,87,0.00,,---,0.00,VWS V14.01,2013-09-06 02:41:00,
2013-09-05 22:46:00,58.9,55.0,30.13,NNE,19,1.0,2.0,87,0.00,,---,0.00,VWS V14.01,2013-09-06 02:46:00,
2013-09-05 22:51:00,58.8,55.0,30.14,NNE,19,1.0,2.0,87,0.00,,---,0.00,VWS V14.01,2013-09-06 02:51:00,
2013-09-05 22:56:00,58.7,54.8,30.14,NNE,19,2.0,3.0,87,0.00,,---,0.00,VWS V14.01,2013-09-06 02:56:00,
2013-09-05 23:01:00,58.6,54.8,30.13,NNE,19,1.0,1.0,87,0.00,,---,0.00,VWS V14.01,2013-09-06 03:01:00,
2013-09-05 23:06:00,58.4,54.5,30.13,NNE,19,2.0,3.0,87,0.00,,---,0.00,VWS V14.01,2013-09-06 03:06:00,
2013-09-05 23:11:00,58.4,54.5,30.13,NNE,19,0.0,2.0,87,0.00,,---,0.00,VWS V14.01,2013-09-06 03:11:00,
2013-09-05 23:16:00,58.4,54.5,30.13,NNE,19,2.0,3.0,87,0.00,,---,0.00,VWS V14.01,2013-09-06 03:16:00,
2013-09-05 23:21:00,58.4,54.5,30.13,NNE,19,2.0,2.0,87,0.00,,---,0.00,VWS V14.01,2013-09-06 03:21:00,
2013-09-05 23:26:00,58.4,54.5,30.13,NNE,19,0.0,3.0,87,0.00,,---,0.00,VWS V14.01,2013-09-06 03:26:00,
2013-09-05 23:31:00,58.4,54.5,30.13,NNE,19,1.0,3.0,87,0.00,,---,0.00,VWS V14.01,2013-09-06 03:31:00,
2013-09-05 23:36:00,58.4,54.5,30.13,NNE,19,2.0,4.0,87,0.00,,---,0.00,VWS V14.01,2013-09-06 03:36:00,
2013-09-05 23:41:00,58.3,54.5,30.14,NNE,19,1.0,2.0,87,0.00,,---,0.00,VWS V14.01,2013-09-06 03:41:00,
2013-09-05 23:46:00,58.2,54.7,30.13,NNE,19,1.0,2.0,88,0.00,,---,0.00,VWS V14.01,2013-09-06 03:46:00,
2013-09-05 23:51:00,58.1,54.6,30.14,NNE,19,2.0,2.0,88,0.00,,---,0.00,VWS V14.01,2013-09-06 03:51:00,
2013-09-05 23:56:00,58.1,54.9,30.14,NNE,19,1.0,3.0,89,0.00,,---,0.00,VWS V14.01,2013-09-06 03:56:00,